YFO weather

Flin Flon Airport
Flin Flon, Manitoba, Canada

Public forecast

Using degrees Celsius for public forecast. Weather courtesy of forecast.io.

Current aviation weather report (METAR) for Flin Flon Airport

Report is more than 6 hours old.

Retrieved 2019/12/08 00:00 UTC (10 hours ago):

CYFO 080000Z 34011KT 15SM SKC M19/M23 A2991 RMK LAST OBS/NEXT 081200UTC SLP162

Closest aviation forecast (TAF) to Flin Flon Airport

Closest forecast is The Pas Airport, 47.2 nm (87.4 km) SSE. Retrieved 2019/12/08 07:39 UTC (3 hours ago):

TAF CYQD 080638Z 0807/0819 32010KT P6SM SKC BECMG 0809/0811 30006KT BECMG 0816/0818 25006KT RMK FCST BASED ON AUTO OBS NXT FCST BY 081300Z